Time;durP1;ratioP1;P1;durP2;ratioP2;P2;SDS_P1;SDS_P2;PMS_P1;PMS_P2;Temp;Humidity;BMP_temperature;BMP_pressure;BME280_temperature;BME280_humidity;BME280_pressure;Samples;Min_cycle;Max_cycle;Signal;HPM_P1;HPM_P2
2022/09/12 00:01:42;;;;;;;14.58;13.08;;;;;;;14.16;99.58;98811.11;1731266;82;21092;-75
2022/09/12 00:04:09;;;;;;;15.80;14.18;;;;;;;14.25;99.48;98811.13;1731893;82;21023;-77
2022/09/12 00:06:36;;;;;;;14.98;13.48;;;;;;;14.25;99.69;98808.98;1733146;81;21544;-78
2022/09/12 00:09:09;;;;;;;14.18;12.80;;;;;;;14.24;99.73;98809.51;1725220;82;21128;-77
2022/09/12 00:11:37;;;;;;;;;;;;;;;14.33;99.24;98804.72;1758005;81;21227;-76
2022/09/12 00:14:03;;;;;;;14.87;13.40;;;;;;;14.38;98.91;98802.75;1756665;81;20191;-75
2022/09/12 00:16:33;;;;;;;13.80;12.40;;;;;;;14.34;98.93;98809.03;1726088;82;21597;-77
2022/09/12 00:19:02;;;;;;;16.10;12.82;;;;;;;14.29;98.79;98807.02;1754866;81;21516;-76
2022/09/12 00:21:29;;;;;;;13.83;12.55;;;;;;;14.31;98.61;98808.12;1726300;82;21039;-76
2022/09/12 00:23:57;;;;;;;13.93;12.53;;;;;;;14.29;98.65;98807.02;1754103;81;21324;-76
2022/09/12 00:26:23;;;;;;;13.15;11.85;;;;;;;14.23;98.99;98802.52;1726239;82;21069;-78
2022/09/12 00:28:50;;;;;;;12.05;10.88;;;;;;;14.19;98.98;98798.64;1754964;79;21025;-74
2022/09/12 00:31:20;;;;;;;13.62;12.25;;;;;;;14.28;98.72;98797.88;1726984;82;21043;-76
2022/09/12 00:33:46;;;;;;;13.45;12.10;;;;;;;14.28;98.64;98789.34;1733120;82;21045;-75
2022/09/12 00:36:18;;;;;;;11.65;10.55;;;;;;;14.25;98.81;98788.95;1733163;82;21123;-75
2022/09/12 00:38:45;;;;;;;13.87;11.70;;;;;;;14.29;98.65;98784.31;1732658;82;21019;-75
2022/09/12 00:41:32;;;;;;;12.75;11.25;;;;;;;14.37;98.34;98779.23;1749912;81;21069;-73
2022/09/12 00:45:27;;;;;;;13.40;12.00;;;;;;;14.37;98.43;98776.56;1832410;77;27990;-75
2022/09/12 00:47:55;;;;;;;12.70;11.50;;;;;;;14.34;98.24;98777.79;1790907;79;20965;-74
2022/09/12 00:50:21;;;;;;;11.80;10.60;;;;;;;14.37;97.93;98772.55;1787781;78;21116;-75
2022/09/12 00:52:52;;;;;;;12.90;11.68;;;;;;;14.36;98.00;98774.91;1789186;79;21126;-76
2022/09/12 00:55:31;;;;;;;11.43;10.40;;;;;;;14.30;98.29;98775.25;1770482;78;20935;-76
2022/09/12 00:58:03;;;;;;;11.78;10.63;;;;;;;14.28;98.39;98777.84;1762475;80;21092;-76
2022/09/12 01:00:30;;;;;;;13.58;12.37;;;;;;;14.31;98.40;98781.41;1763912;79;21085;-75
2022/09/12 01:03:01;;;;;;;14.38;12.98;;;;;;;14.25;98.65;98776.41;1780984;79;21150;-78
2022/09/12 01:05:28;;;;;;;13.90;12.65;;;;;;;14.18;99.06;98779.66;1775734;79;21026;-76
2022/09/12 01:07:55;;;;;;;13.75;12.35;;;;;;;14.22;99.08;98774.70;1788391;78;20977;-74
2022/09/12 01:10:21;;;;;;;13.25;12.05;;;;;;;14.25;99.20;98778.27;1760269;78;21081;-74
2022/09/12 01:12:48;;;;;;;11.38;10.28;;;;;;;14.24;99.35;98780.65;1764487;78;21032;-76
2022/09/12 01:15:15;;;;;;;11.75;10.72;;;;;;;14.23;98.82;98771.80;1788301;79;21192;-75
2022/09/12 01:18:20;;;;;;;12.18;11.03;;;;;;;14.25;98.59;98779.59;1792161;79;21061;-74
2022/09/12 01:21:14;;;;;;;10.60;9.53;;;;;;;14.22;98.31;98782.20;1792114;79;21100;-75
2022/09/12 01:24:25;;;;;;;8.55;7.75;;;;;;;14.12;98.36;98775.18;1783434;78;21053;-75
2022/09/12 01:27:27;;;;;;;9.48;8.58;;;;;;;14.12;97.73;98770.65;1705349;82;21227;-75
2022/09/12 01:30:28;;;;;;;8.75;7.95;;;;;;;14.04;97.38;98774.91;1776794;79;21106;-73
2022/09/12 01:33:28;;;;;;;7.85;7.05;;;;;;;13.92;97.72;98780.08;1789876;79;21469;-75
2022/09/12 01:36:09;;;;;;;8.80;8.00;;;;;;;13.92;97.56;98780.61;1776512;80;21041;-76
2022/09/12 01:38:47;;;;;;;8.53;7.72;;;;;;;13.87;97.68;98782.59;1772536;80;21533;-74
2022/09/12 01:41:31;;;;;;;8.00;7.20;;;;;;;13.76;97.93;98779.25;1775922;78;21064;-76
2022/09/12 01:44:16;;;;;;;7.55;6.85;;;;;;;13.77;98.03;98779.54;1774713;78;21260;-75
2022/09/12 01:46:56;;;;;;;8.08;7.28;;;;;;;13.80;97.79;98777.80;1761381;79;21005;-76
2022/09/12 01:49:34;;;;;;;7.22;6.53;;;;;;;13.74;97.62;98778.64;1783118;79;21037;-74
2022/09/12 01:52:11;;;;;;;6.67;6.00;;;;;;;13.72;97.34;98779.38;1779699;79;21091;-75
2022/09/12 01:54:42;;;;;;;6.90;6.30;;;;;;;13.72;97.09;98774.84;1745076;80;21106;-75
2022/09/12 01:57:18;;;;;;;5.97;5.37;;;;;;;13.67;97.09;98771.17;1785879;79;21233;-75
2022/09/12 01:59:48;;;;;;;6.00;5.50;;;;;;;13.61;97.00;98769.36;1788394;79;21019;-74
2022/09/12 02:02:22;;;;;;;6.92;6.15;;;;;;;13.66;96.91;98767.70;1789337;79;21087;-76
2022/09/12 02:05:11;;;;;;;5.65;5.00;;;;;;;13.65;96.96;98774.58;1773513;79;21132;-75
2022/09/12 02:07:52;;;;;;;5.67;4.58;;;;;;;13.57;96.83;98767.10;1787038;79;21003;-75
2022/09/12 02:10:29;;;;;;;6.47;5.45;;;;;;;13.65;96.62;98760.70;1784327;78;21120;-77
2022/09/12 02:13:04;;;;;;;6.50;5.90;;;;;;;13.63;96.57;98756.09;1767277;80;21083;-75
2022/09/12 02:15:39;;;;;;;5.35;4.85;;;;;;;13.57;96.88;98754.28;1784384;79;20986;-75
2022/09/12 02:18:06;;;;;;;5.37;4.87;;;;;;;13.55;96.92;98757.16;1789220;79;21037;-74
2022/09/12 02:20:35;;;;;;;5.12;4.62;;;;;;;13.62;96.93;98761.64;1782572;79;21048;-75
2022/09/12 02:23:07;;;;;;;5.00;4.60;;;;;;;13.57;96.81;98764.95;1777717;79;20971;-74
2022/09/12 02:25:36;;;;;;;5.40;4.50;;;;;;;13.54;96.90;98762.20;1788668;79;21541;-75
2022/09/12 02:28:11;;;;;;;5.22;4.72;;;;;;;13.57;96.74;98769.77;1758733;80;20992;-75
2022/09/12 02:30:50;;;;;;;4.75;4.35;;;;;;;13.52;96.67;98762.09;1776158;79;21484;-72
2022/09/12 02:33:50;;;;;;;5.42;4.65;;;;;;;13.41;96.90;98763.58;1770530;80;21010;-73
2022/09/12 02:36:38;;;;;;;4.28;3.87;;;;;;;13.45;97.06;98763.98;1740822;80;21232;-74
2022/09/12 02:39:04;;;;;;;5.60;5.10;;;;;;;13.44;97.20;98764.48;1712323;82;20973;-73
2022/09/12 02:41:31;;;;;;;4.72;4.33;;;;;;;13.38;97.50;98761.33;1720878;82;21135;-74
2022/09/12 02:43:57;;;;;;;5.03;3.90;;;;;;;13.42;97.60;98762.53;1720444;83;21037;-74
2022/09/12 02:46:28;;;;;;;4.15;3.85;;;;;;;13.40;97.69;98765.13;1719485;82;21487;-76
2022/09/12 02:48:55;;;;;;;4.28;3.87;;;;;;;13.33;98.05;98767.30;1721751;82;21113;-74
2022/09/12 02:51:22;;;;;;;4.10;3.77;;;;;;;13.36;97.88;98764.72;1725655;82;21281;-73
2022/09/12 02:53:48;;;;;;;4.62;4.22;;;;;;;13.36;97.78;98770.05;1728954;81;21039;-74
2022/09/12 02:56:26;;;;;;;4.03;3.33;;;;;;;13.28;97.97;98766.25;1775320;79;21013;-75
2022/09/12 02:58:53;;;;;;;3.30;3.00;;;;;;;13.23;98.40;98768.72;1764570;80;21093;-75
2022/09/12 03:01:46;;;;;;;4.20;3.80;;;;;;;13.26;98.33;98769.13;1787479;79;21131;-76
2022/09/12 03:04:34;;;;;;;4.22;3.42;;;;;;;13.27;98.60;98771.27;1785394;80;28645;-73
2022/09/12 03:07:38;;;;;;;3.80;3.20;;;;;;;13.23;98.84;98770.05;1781455;80;21033;-75
2022/09/12 03:10:36;;;;;;;5.60;3.60;;;;;;;13.25;98.69;98766.66;1762929;79;21103;-74
2022/09/12 03:13:18;;;;;;;5.62;4.05;;;;;;;13.26;98.57;98766.45;1776682;79;21046;-73
2022/09/12 03:16:01;;;;;;;4.45;3.45;;;;;;;13.16;98.92;98768.75;1757302;80;21147;-74
2022/09/12 03:18:54;;;;;;;5.05;3.42;;;;;;;13.17;99.06;98765.87;1780517;80;22119;-75
2022/09/12 03:21:49;;;;;;;4.78;3.27;;;;;;;13.22;99.04;98770.58;1787653;79;21069;-76
2022/09/12 03:24:30;;;;;;;4.33;3.40;;;;;;;13.12;98.97;98771.01;1786853;79;21528;-75
2022/09/12 03:27:28;;;;;;;3.05;2.85;;;;;;;13.11;98.78;98768.55;1768935;79;21104;-74
2022/09/12 03:29:55;;;;;;;3.42;2.70;;;;;;;13.11;98.51;98768.55;1772380;79;21114;-76
2022/09/12 03:32:41;;;;;;;4.30;3.30;;;;;;;13.05;98.80;98767.53;1787872;79;21006;-77
2022/09/12 03:35:09;;;;;;;2.30;2.10;;;;;;;13.00;98.85;98770.02;1769799;79;21107;-74
2022/09/12 03:37:36;;;;;;;1.70;1.60;;;;;;;13.02;97.35;98781.78;1783330;79;20996;-77
2022/09/12 03:40:05;;;;;;;1.72;1.62;;;;;;;12.95;96.34;98786.61;1785897;79;21029;-76
2022/09/12 03:42:33;;;;;;;1.50;1.40;;;;;;;12.81;95.40;98785.00;1766810;79;21179;-75
2022/09/12 03:44:59;;;;;;;1.42;1.30;;;;;;;12.70;94.54;98789.09;1780446;80;21056;-73
2022/09/12 03:47:25;;;;;;;1.20;1.10;;;;;;;12.68;93.28;98795.14;1778844;80;21089;-76
2022/09/12 03:49:52;;;;;;;1.22;1.00;;;;;;;12.54;92.16;98796.17;1779468;79;21002;-76
2022/09/12 03:52:18;;;;;;;1.00;1.00;;;;;;;12.35;92.13;98800.44;1754546;80;21052;-76
2022/09/12 03:54:45;;;;;;;1.30;0.82;;;;;;;12.24;91.41;98800.52;1786360;79;21487;-76
2022/09/12 03:57:11;;;;;;;0.85;0.80;;;;;;;12.15;90.82;98805.73;1768242;79;22091;-75
2022/09/12 03:59:39;;;;;;;0.95;0.90;;;;;;;12.00;90.91;98804.56;1775638;79;21092;-74
2022/09/12 04:02:05;;;;;;;2.60;0.80;;;;;;;11.87;90.91;98806.63;1765274;80;21546;-74
2022/09/12 04:04:32;;;;;;;0.78;0.78;;;;;;;11.85;90.44;98807.86;1763247;79;21530;-74
2022/09/12 04:06:58;;;;;;;1.02;0.90;;;;;;;11.81;90.15;98812.75;1770376;80;21601;-76
2022/09/12 04:09:26;;;;;;;0.75;0.75;;;;;;;11.68;90.40;98812.69;1761028;79;21102;-77
2022/09/12 04:11:53;;;;;;;1.98;0.85;;;;;;;11.56;90.32;98821.23;1752504;80;21092;-75
2022/09/12 04:14:20;;;;;;;0.80;0.80;;;;;;;11.58;90.19;98821.03;1769593;79;21193;-74
2022/09/12 04:16:47;;;;;;;1.87;0.80;;;;;;;11.55;90.14;98828.06;1780212;80;21464;-76
2022/09/12 04:19:13;;;;;;;1.47;0.68;;;;;;;11.45;90.10;98822.30;1765122;80;21139;-75
2022/09/12 04:21:40;;;;;;;0.80;0.80;;;;;;;11.41;90.27;98827.18;1765969;79;21064;-75
2022/09/12 04:24:07;;;;;;;1.00;0.90;;;;;;;11.47;90.38;98821.59;1777988;79;21483;-75
2022/09/12 04:26:34;;;;;;;1.37;1.02;;;;;;;11.42;90.61;98824.84;1752193;79;21494;-75
2022/09/12 04:29:00;;;;;;;2.58;1.07;;;;;;;11.36;90.96;98815.00;1779596;80;21549;-75
2022/09/12 04:31:27;;;;;;;1.45;0.95;;;;;;;11.39;90.77;98822.05;1780204;79;21238;-76
2022/09/12 04:33:59;;;;;;;1.67;1.02;;;;;;;11.47;90.54;98825.58;1779026;79;21589;-76
2022/09/12 04:36:27;;;;;;;3.95;1.25;;;;;;;11.41;90.66;98824.52;1766069;79;21089;-76
2022/09/12 04:38:53;;;;;;;1.00;0.90;;;;;;;11.34;90.90;98820.50;1754175;79;21065;-76
2022/09/12 04:41:24;;;;;;;9.13;1.95;;;;;;;11.36;91.10;98825.12;1779262;79;21014;-75
2022/09/12 04:43:53;;;;;;;3.67;1.07;;;;;;;11.46;91.38;98827.42;1777176;79;21105;-74
2022/09/12 04:46:20;;;;;;;1.55;1.20;;;;;;;11.45;91.52;98824.44;1779102;80;21085;-75
2022/09/12 04:48:47;;;;;;;3.12;1.00;;;;;;;11.41;91.59;98830.69;1779021;79;21470;-74
2022/09/12 04:51:29;;;;;;;1.67;1.10;;;;;;;11.47;91.29;98836.22;1747133;79;21057;-74
2022/09/12 04:53:59;;;;;;;4.40;1.07;;;;;;;11.48;91.17;98845.33;1765284;79;21034;-75
2022/09/12 04:56:26;;;;;;;0.95;0.80;;;;;;;11.40;91.51;98838.33;1802683;79;21876;-75
2022/09/12 04:59:01;;;;;;;2.08;0.90;;;;;;;11.34;91.79;98843.11;1773121;79;21498;-77
2022/09/12 05:01:28;;;;;;;1.77;0.72;;;;;;;11.38;91.23;98847.02;1777937;79;21034;-77
2022/09/12 05:03:56;;;;;;;1.82;1.12;;;;;;;11.41;91.33;98849.30;1779141;80;20998;-77
2022/09/12 05:06:25;;;;;;;0.90;0.90;;;;;;;11.37;91.69;98840.55;1775123;79;21030;-78
2022/09/12 05:08:52;;;;;;;1.00;0.90;;;;;;;11.33;91.86;98838.79;1760073;79;21172;-77
2022/09/12 05:11:22;;;;;;;1.42;1.00;;;;;;;11.35;91.90;98845.25;1767107;79;21003;-77
2022/09/12 05:13:49;;;;;;;2.60;1.17;;;;;;;11.43;91.78;98838.95;1783180;78;21088;-76
2022/09/12 05:16:18;;;;;;;1.47;1.02;;;;;;;11.42;91.95;98838.14;1769160;80;21057;-77
2022/09/12 05:18:46;;;;;;;1.37;1.17;;;;;;;11.38;92.24;98840.37;1778498;79;21070;-79
2022/09/12 05:21:15;;;;;;;1.30;1.10;;;;;;;11.43;92.18;98837.11;1776888;80;21887;-79
2022/09/12 05:23:41;;;;;;;1.87;1.17;;;;;;;11.53;91.82;98828.77;1781153;80;21035;-75
2022/09/12 05:26:11;;;;;;;1.30;1.20;;;;;;;11.49;91.67;98836.35;1781747;79;21026;-76
2022/09/12 05:28:38;;;;;;;3.37;1.25;;;;;;;11.46;91.88;98830.59;1769207;79;21033;-78
2022/09/12 05:31:17;;;;;;;1.42;1.32;;;;;;;11.53;91.88;98836.27;1777633;79;21038;-76
2022/09/12 05:33:46;;;;;;;1.25;1.10;;;;;;;11.61;91.60;98839.28;1783853;78;21098;-77
2022/09/12 05:36:16;;;;;;;2.60;1.45;;;;;;;11.63;91.80;98833.25;1767841;80;21056;-75
2022/09/12 05:38:43;;;;;;;1.30;1.20;;;;;;;11.60;92.08;98834.44;1773290;80;21030;-76
2022/09/12 05:41:16;;;;;;;1.52;1.10;;;;;;;11.65;92.10;98835.69;1780850;80;21557;-76
2022/09/12 05:43:44;;;;;;;1.82;1.65;;;;;;;11.71;91.92;98834.92;1773290;79;21037;-76
2022/09/12 05:46:14;;;;;;;1.75;1.10;;;;;;;11.69;91.96;98827.65;1781136;80;21081;-77
2022/09/12 05:48:41;;;;;;;2.22;1.00;;;;;;;11.65;92.16;98826.38;1779558;80;21566;-78
2022/09/12 05:51:11;;;;;;;1.37;1.27;;;;;;;11.70;91.90;98831.94;1755877;79;21046;-78
2022/09/12 05:53:39;;;;;;;3.05;1.75;;;;;;;11.75;91.90;98830.84;1775444;79;21038;-78
2022/09/12 05:56:17;;;;;;;1.80;1.40;;;;;;;11.71;91.98;98834.41;1775456;79;21167;-76
2022/09/12 05:58:46;;;;;;;2.00;1.62;;;;;;;11.68;92.62;98828.66;1762658;79;21239;-77
2022/09/12 06:01:19;;;;;;;3.22;1.52;;;;;;;11.75;92.65;98825.52;1769031;79;21056;-79
2022/09/12 06:03:51;;;;;;;1.92;1.50;;;;;;;11.87;92.57;98824.44;1770688;80;21019;-80
2022/09/12 06:06:21;;;;;;;2.45;1.40;;;;;;;11.92;92.79;98831.36;1753623;78;22195;-80
2022/09/12 06:08:53;;;;;;;2.33;1.62;;;;;;;11.92;93.01;98828.19;1769379;80;21061;-80
2022/09/12 06:11:22;;;;;;;3.60;1.47;;;;;;;12.05;92.72;98827.91;1777617;79;21091;-80
2022/09/12 06:13:50;;;;;;;1.87;1.40;;;;;;;12.21;92.64;98824.90;1770213;80;21018;-77
2022/09/12 06:16:19;;;;;;;2.45;1.57;;;;;;;12.28;91.10;98833.70;1763696;80;21042;-77
2022/09/12 06:18:52;;;;;;;2.00;1.57;;;;;;;12.31;91.00;98830.65;1766427;80;21022;-79
2022/09/12 06:21:20;;;;;;;1.87;1.22;;;;;;;12.41;89.21;98831.59;1775706;79;26439;-76
2022/09/12 06:23:47;;;;;;;1.50;1.02;;;;;;;12.38;88.12;98833.31;1766474;79;21152;-78
2022/09/12 06:26:16;;;;;;;1.17;1.10;;;;;;;12.27;86.58;98836.07;1774360;78;21520;-79
2022/09/12 06:28:44;;;;;;;1.60;1.07;;;;;;;12.24;87.17;98835.65;1758589;80;21010;-79
2022/09/12 06:31:16;;;;;;;3.77;1.37;;;;;;;12.22;87.11;98842.50;1768334;79;21107;-81
2022/09/12 06:33:48;;;;;;;2.85;1.60;;;;;;;12.10;86.86;98832.13;1766242;80;21225;-76
2022/09/12 06:36:22;;;;;;;2.00;1.00;;;;;;;11.99;87.58;98839.69;1769860;79;21027;-75
2022/09/12 06:38:56;;;;;;;2.47;1.40;;;;;;;12.02;87.62;98839.78;1776678;79;21069;-75
2022/09/12 06:41:22;;;;;;;1.77;1.42;;;;;;;12.03;87.72;98838.75;1770760;78;21046;-76
2022/09/12 06:43:49;;;;;;;2.00;1.12;;;;;;;11.95;87.70;98835.75;1776933;79;20995;-75
2022/09/12 06:46:16;;;;;;;1.40;1.20;;;;;;;11.94;87.98;98841.30;1779087;80;21569;-73
2022/09/12 06:48:43;;;;;;;1.70;1.40;;;;;;;12.02;87.71;98842.45;1777103;80;21591;-76
2022/09/12 06:51:12;;;;;;;3.87;1.72;;;;;;;12.08;87.69;98842.16;1780728;79;21044;-77
2022/09/12 06:53:40;;;;;;;2.17;1.40;;;;;;;12.04;87.47;98843.06;1791540;79;21002;-76
2022/09/12 06:56:13;;;;;;;5.45;1.70;;;;;;;12.02;87.72;98840.30;1788900;79;21085;-75
2022/09/12 06:58:40;;;;;;;2.12;1.40;;;;;;;12.12;87.71;98845.55;1786318;80;21083;-76
2022/09/12 07:01:10;;;;;;;1.35;1.22;;;;;;;12.23;86.30;98841.98;1783580;79;21224;-77
2022/09/12 07:03:37;;;;;;;2.00;1.40;;;;;;;12.17;85.11;98856.42;1781906;80;21053;-76
2022/09/12 07:06:06;;;;;;;1.65;1.07;;;;;;;12.11;85.60;98854.57;1784805;79;21005;-73
2022/09/12 07:08:36;;;;;;;2.77;1.85;;;;;;;12.19;85.38;98854.90;1786908;78;21474;-73
2022/09/12 07:11:22;;;;;;;3.80;1.77;;;;;;;12.27;84.94;98856.05;1786892;80;21092;-72
2022/09/12 07:13:53;;;;;;;3.67;1.65;;;;;;;12.29;85.17;98851.86;1770163;78;21273;-75
2022/09/12 07:16:22;;;;;;;3.67;1.50;;;;;;;12.43;85.43;98855.36;1776031;78;21600;-74
2022/09/12 07:18:59;;;;;;;8.78;1.70;;;;;;;12.65;85.38;98852.85;1785976;79;21734;-73
2022/09/12 07:21:26;;;;;;;3.50;1.95;;;;;;;12.75;85.04;98849.27;1774306;78;21056;-73
2022/09/12 07:23:58;;;;;;;3.33;1.67;;;;;;;12.84;84.66;98851.72;1777348;79;21115;-73
2022/09/12 07:26:28;;;;;;;5.40;2.40;;;;;;;13.01;84.57;98851.63;1784414;78;21086;-75
2022/09/12 07:28:56;;;;;;;3.52;2.17;;;;;;;13.23;84.15;98853.58;1787622;78;21525;-76
2022/09/12 07:31:26;;;;;;;2.58;1.87;;;;;;;13.32;83.29;98846.19;1784502;79;21049;-75
2022/09/12 07:33:52;;;;;;;3.27;1.80;;;;;;;13.42;83.44;98847.09;1777769;79;21021;-77
2022/09/12 07:36:22;;;;;;;2.20;1.95;;;;;;;13.55;82.88;98849.73;1782441;78;21030;-77
2022/09/12 07:38:54;;;;;;;3.65;2.20;;;;;;;13.70;82.39;98842.30;1789242;79;22317;-75
2022/09/12 07:41:25;;;;;;;2.87;2.20;;;;;;;13.79;82.57;98842.91;1777889;79;21104;-76
2022/09/12 07:43:54;;;;;;;3.17;1.92;;;;;;;13.86;82.38;98850.35;1759037;79;21041;-76
2022/09/12 07:46:22;;;;;;;2.95;2.25;;;;;;;13.92;81.05;98848.69;1776214;79;21074;-76
2022/09/12 07:48:50;;;;;;;2.62;2.10;;;;;;;14.00;81.02;98841.77;1785443;78;21495;-76
2022/09/12 07:51:17;;;;;;;1.87;1.77;;;;;;;14.07;80.42;98846.57;1778800;79;21133;-75
2022/09/12 07:53:45;;;;;;;4.50;2.22;;;;;;;14.05;79.18;98852.64;1784179;79;21632;-74
2022/09/12 07:56:12;;;;;;;2.05;1.80;;;;;;;14.00;79.63;98854.31;1784611;79;21053;-73
2022/09/12 07:58:40;;;;;;;3.62;1.87;;;;;;;14.00;79.07;98844.96;1785876;80;21077;-77
2022/09/12 08:01:16;;;;;;;1.62;1.52;;;;;;;14.12;78.83;98849.44;1787321;79;21069;-77
2022/09/12 08:03:45;;;;;;;1.50;1.40;;;;;;;14.13;78.19;98845.72;1782228;79;21546;-78
2022/09/12 08:06:19;;;;;;;3.15;1.57;;;;;;;14.12;78.36;98845.95;1776173;79;21084;-76
2022/09/12 08:08:46;;;;;;;2.87;1.57;;;;;;;14.14;77.84;98839.36;1776620;79;21029;-79
2022/09/12 08:11:17;;;;;;;2.67;1.47;;;;;;;14.29;77.00;98845.77;1782389;79;21108;-80
2022/09/12 08:13:44;;;;;;;3.15;1.80;;;;;;;14.42;77.00;98842.70;1793323;79;21096;-80
2022/09/12 08:16:17;;;;;;;3.08;1.90;;;;;;;14.42;76.66;98844.03;1792107;79;21683;-80
2022/09/12 08:18:45;;;;;;;2.80;2.02;;;;;;;14.36;77.07;98845.70;1777300;79;21022;-78
2022/09/12 08:21:21;;;;;;;5.03;2.20;;;;;;;14.30;77.07;98843.37;1784414;79;21029;-79
2022/09/12 08:23:54;;;;;;;3.83;2.00;;;;;;;14.38;77.06;98850.32;1782209;78;21023;-77
2022/09/12 08:26:21;;;;;;;3.08;2.33;;;;;;;14.38;75.21;98844.97;1785186;79;21030;-75
2022/09/12 08:28:48;;;;;;;2.30;2.10;;;;;;;14.25;75.98;98843.71;1783373;78;21699;-74
2022/09/12 08:31:17;;;;;;;4.60;2.40;;;;;;;14.13;75.85;98844.38;1779293;78;21029;-77
2022/09/12 08:33:43;;;;;;;3.33;2.12;;;;;;;14.05;76.46;98843.82;1768943;78;21092;-76
2022/09/12 08:36:16;;;;;;;3.08;2.17;;;;;;;14.07;76.34;98840.42;1771125;79;21344;-76
2022/09/12 08:38:45;;;;;;;3.83;2.98;;;;;;;14.15;77.12;98839.64;1780245;78;21112;-76
2022/09/12 08:41:27;;;;;;;2.22;1.90;;;;;;;14.22;77.50;98846.30;1780152;78;21763;-76
2022/09/12 08:44:17;;;;;;;2.77;1.90;;;;;;;14.35;76.98;98830.20;1772275;79;21030;-75
2022/09/12 08:47:18;;;;;;;3.27;1.60;;;;;;;14.46;76.07;98834.02;1778789;79;21616;-74
2022/09/12 08:50:14;;;;;;;3.02;1.85;;;;;;;14.57;75.02;98837.91;1771205;79;21093;-81
2022/09/12 08:53:02;;;;;;;2.45;2.00;;;;;;;14.71;73.75;98830.61;1762459;79;21409;-79
2022/09/12 08:55:32;;;;;;;3.22;1.98;;;;;;;14.65;74.48;98831.48;1770988;78;21229;-78
2022/09/12 08:58:01;;;;;;;3.05;2.33;;;;;;;14.62;73.93;98838.09;1771920;79;21174;-81
2022/09/12 09:00:33;;;;;;;4.15;2.30;;;;;;;14.57;74.54;98836.56;1773330;78;21011;-83
2022/09/12 09:03:39;;;;;;;2.50;2.30;;;;;;;14.53;74.11;98834.00;1771477;79;20983;-75
2022/09/12 09:06:38;;;;;;;3.35;2.20;;;;;;;14.57;73.88;98830.41;1761583;79;21015;-75
2022/09/12 09:09:39;;;;;;;3.02;2.52;;;;;;;14.43;73.90;98836.30;1766574;79;21116;-77
2022/09/12 09:12:45;;;;;;;4.40;3.02;;;;;;;14.21;74.02;98834.49;1767987;79;21073;-74
2022/09/12 09:15:35;;;;;;;3.10;2.00;;;;;;;14.06;74.57;98837.43;1736904;80;21382;-74
2022/09/12 09:18:16;;;;;;;3.60;2.17;;;;;;;14.03;75.11;98840.02;1734776;80;21076;-76
2022/09/12 09:20:56;;;;;;;4.08;2.15;;;;;;;14.17;75.05;98839.44;1758682;79;21078;-76
2022/09/12 09:23:29;;;;;;;2.52;2.00;;;;;;;14.24;75.34;98843.42;1774547;78;21015;-77
2022/09/12 09:26:25;;;;;;;2.50;2.30;;;;;;;14.27;74.76;98838.97;1767587;78;21105;-79
2022/09/12 09:28:58;;;;;;;2.67;2.30;;;;;;;14.28;74.59;98841.44;1772702;79;22033;-76
2022/09/12 09:31:28;;;;;;;2.87;2.12;;;;;;;14.25;74.25;98844.52;1769358;79;20982;-74
2022/09/12 09:33:54;;;;;;;2.75;1.90;;;;;;;14.33;74.28;98838.95;1762651;80;21085;-79
2022/09/12 09:36:42;;;;;;;3.12;2.40;;;;;;;14.47;75.12;98844.22;1762204;79;21519;-74
2022/09/12 09:39:53;;;;;;;2.62;2.33;;;;;;;14.53;74.69;98842.83;1760804;79;21002;-79
2022/09/12 09:42:56;;;;;;;2.67;2.30;;;;;;;14.59;73.87;98847.05;1767359;79;21073;-75
2022/09/12 09:45:28;;;;;;;3.47;2.35;;;;;;;14.62;73.88;98847.44;1773721;79;21414;-79
2022/09/12 09:48:29;;;;;;;2.30;2.10;;;;;;;14.72;73.82;98848.30;1775549;79;21056;-78
2022/09/12 09:51:23;;;;;;;4.03;2.30;;;;;;;14.92;73.32;98844.13;1743015;80;21567;-80
2022/09/12 09:53:55;;;;;;;2.50;2.30;;;;;;;14.96;72.46;98845.32;1725228;81;21062;-79
2022/09/12 09:56:35;;;;;;;3.80;2.58;;;;;;;14.92;72.63;98846.27;1723811;81;21113;-80
2022/09/12 09:59:30;;;;;;;2.58;2.37;;;;;;;14.87;72.17;98852.81;1725666;81;21065;-79
2022/09/12 10:02:27;;;;;;;2.80;2.55;;;;;;;14.77;72.22;98855.66;1716604;81;21015;-80
2022/09/12 10:04:56;;;;;;;3.92;2.12;;;;;;;14.65;72.37;98859.55;1724726;81;21115;-76
2022/09/12 10:07:23;;;;;;;2.85;2.00;;;;;;;14.64;72.44;98863.23;1720905;82;21148;-75
2022/09/12 10:12:50;;;;;;;3.25;2.30;;;;;;;14.32;72.85;98835.97;1707826;82;21086;-79
2022/09/12 10:15:27;;;;;;;6.22;2.47;;;;;;;14.34;73.33;98867.81;1732992;82;21495;-78
2022/09/12 10:17:55;;;;;;;4.58;2.67;;;;;;;14.19;73.63;98867.28;1726236;81;21664;-78
2022/09/12 10:20:45;;;;;;;2.65;2.27;;;;;;;14.08;74.52;98876.76;1729664;81;21035;-80
2022/09/12 10:23:35;;;;;;;3.67;2.30;;;;;;;14.01;75.68;98869.31;1728076;81;21043;-78
2022/09/12 10:26:05;;;;;;;3.80;2.15;;;;;;;13.92;76.62;98873.53;1725975;82;21038;-79
2022/09/12 10:28:36;;;;;;;3.25;2.08;;;;;;;13.76;77.37;98873.48;1729884;82;21019;-78
2022/09/12 10:31:03;;;;;;;4.03;1.80;;;;;;;13.65;77.84;98875.47;1729458;82;21755;-78
2022/09/12 10:33:31;;;;;;;1.92;1.70;;;;;;;13.56;78.43;98869.55;1732781;82;21056;-79
2022/09/12 10:35:57;;;;;;;3.12;1.82;;;;;;;13.61;78.26;98871.58;1725959;81;21070;-73
2022/09/12 10:38:30;;;;;;;1.90;1.60;;;;;;;13.57;78.41;98873.03;1723360;81;21042;-75
2022/09/12 10:41:08;;;;;;;3.40;1.93;;;;;;;13.47;78.38;98880.13;1730570;81;21070;-73
2022/09/12 10:43:37;;;;;;;2.05;1.85;;;;;;;13.39;78.44;98879.02;1720881;81;21530;-74
2022/09/12 10:46:23;;;;;;;2.33;1.80;;;;;;;13.31;78.67;98877.39;1726034;81;21527;-75
2022/09/12 10:48:54;;;;;;;3.00;1.75;;;;;;;13.34;78.61;98884.14;1724344;81;21598;-74
2022/09/12 10:51:27;;;;;;;2.80;1.85;;;;;;;13.34;78.80;98888.15;1737390;80;21095;-74
2022/09/12 10:53:56;;;;;;;;;;;;;;;13.30;78.95;98889.59;1736977;80;21107;-74
2022/09/12 10:56:27;;;;;;;2.45;1.85;;;;;;;13.25;78.49;98888.02;1748061;80;22259;-75
2022/09/12 10:59:26;;;;;;;4.53;2.58;;;;;;;13.15;78.35;98890.61;1734350;81;21509;-74
2022/09/12 11:02:01;;;;;;;5.22;2.15;;;;;;;13.18;78.31;98888.84;1714020;81;21066;-75
2022/09/12 11:04:45;;;;;;;2.00;1.60;;;;;;;13.11;78.41;98889.35;1722439;81;21581;-75
2022/09/12 11:07:43;;;;;;;3.62;2.08;;;;;;;13.06;78.60;98900.34;1724432;81;21104;-74
2022/09/12 11:10:33;;;;;;;2.98;2.12;;;;;;;12.96;79.00;98899.39;1720012;81;21633;-73
2022/09/12 11:13:35;;;;;;;4.58;2.45;;;;;;;13.00;79.48;98903.32;1717904;81;21565;-82
2022/09/12 11:16:18;;;;;;;2.70;2.00;;;;;;;13.01;79.67;98905.47;1718910;82;21125;-79
2022/09/12 11:19:02;;;;;;;5.22;2.37;;;;;;;12.93;79.98;98900.62;1733921;81;21003;-80
2022/09/12 11:22:01;;;;;;;4.17;2.27;;;;;;;12.88;80.49;98901.74;1723575;81;21096;-84
2022/09/12 11:25:14;;;;;;;3.10;2.20;;;;;;;12.92;80.93;98899.49;1731556;82;21148;-87
2022/09/12 11:28:34;;;;;;;2.75;2.33;;;;;;;12.99;80.99;98899.00;1731191;82;21051;-85
2022/09/12 11:31:48;;;;;;;2.80;2.10;;;;;;;12.92;81.43;98898.16;1727056;81;21035;-73
2022/09/12 11:34:22;;;;;;;3.20;2.40;;;;;;;12.83;81.87;98898.89;1723182;81;21038;-78
2022/09/12 11:37:21;;;;;;;2.50;2.30;;;;;;;12.92;82.09;98904.83;1718948;82;21083;-78
2022/09/12 11:39:47;;;;;;;4.22;2.08;;;;;;;12.99;82.13;98902.48;1719778;81;21231;-81
2022/09/12 11:42:22;;;;;;;2.58;2.33;;;;;;;12.96;82.09;98901.57;1727242;81;21046;-79
2022/09/12 11:45:16;;;;;;;2.62;2.20;;;;;;;12.94;81.99;98902.77;1730624;82;21094;-81
2022/09/12 11:47:47;;;;;;;3.27;2.17;;;;;;;12.98;81.86;98904.03;1700842;82;21050;-84
2022/09/12 11:50:25;;;;;;;3.87;2.42;;;;;;;13.09;81.85;98901.25;1686518;83;21112;-79
2022/09/12 11:52:52;;;;;;;6.08;3.95;;;;;;;13.11;82.45;98900.02;1743771;80;21066;-79
2022/09/12 11:55:24;;;;;;;3.60;2.60;;;;;;;13.17;82.67;98899.71;1739700;80;21500;-76
2022/09/12 11:58:01;;;;;;;10.05;3.55;;;;;;;13.25;82.60;98902.19;1728818;81;21049;-74
2022/09/12 12:00:39;;;;;;;5.70;2.70;;;;;;;13.30;81.54;98900.26;1700131;83;21093;-75
2022/09/12 12:03:14;;;;;;;5.55;3.20;;;;;;;13.46;80.85;98903.01;1747084;81;21008;-74
2022/09/12 12:06:04;;;;;;;4.67;3.08;;;;;;;13.48;80.25;98900.46;1743150;80;21208;-75
2022/09/12 12:08:33;;;;;;;2.92;2.58;;;;;;;13.48;81.23;98900.46;1747735;80;21044;-77
2022/09/12 12:11:01;;;;;;;4.90;3.05;;;;;;;13.54;81.92;98912.97;1744247;80;21057;-80
2022/09/12 12:13:39;;;;;;;5.87;3.27;;;;;;;13.60;82.16;98910.48;1695285;83;21120;-77